createdAt,value
2023-04-27T00:01:12.665Z,77.38
2023-04-27T00:03:40.074Z,77.60
2023-04-27T00:06:08.434Z,77.86
2023-04-27T00:08:35.441Z,77.98
2023-04-27T00:11:02.375Z,78.04
2023-04-27T00:13:29.262Z,78.32
2023-04-27T00:15:56.491Z,78.58
2023-04-27T00:18:23.346Z,78.83
2023-04-27T00:20:50.115Z,78.85
2023-04-27T00:23:16.993Z,78.80
2023-04-27T00:25:43.752Z,78.86
2023-04-27T00:28:10.801Z,78.98
2023-04-27T00:30:37.883Z,78.98
2023-04-27T00:33:04.692Z,78.97
2023-04-27T00:35:34.793Z,79.07
2023-04-27T00:38:01.740Z,79.14
2023-04-27T00:40:28.773Z,79.25
2023-04-27T00:42:55.724Z,79.26
2023-04-27T00:45:22.748Z,79.15
2023-04-27T00:47:49.842Z,79.07
2023-04-27T00:50:19.326Z,78.92
2023-04-27T00:52:46.167Z,78.93
2023-04-27T00:55:13.067Z,78.88
2023-04-27T00:57:40.462Z,78.80
2023-04-27T01:00:07.556Z,78.72
2023-04-27T01:02:34.935Z,78.61
2023-04-27T01:05:02.096Z,78.67
2023-04-27T01:07:29.315Z,78.71
2023-04-27T01:09:57.127Z,78.55
2023-04-27T01:12:23.867Z,78.45
2023-04-27T01:14:50.915Z,78.44
2023-04-27T01:17:18.410Z,78.51
2023-04-27T01:19:45.316Z,78.53
2023-04-27T01:22:12.362Z,78.60
2023-04-27T01:24:39.204Z,78.56
2023-04-27T01:27:06.457Z,78.51
2023-04-27T01:29:33.303Z,78.43
2023-04-27T01:32:00.044Z,78.20
2023-04-27T01:34:26.983Z,78.05
2023-04-27T01:36:53.706Z,77.96
2023-04-27T01:39:21.700Z,77.87
2023-04-27T01:41:48.591Z,77.74
2023-04-27T01:44:15.485Z,77.76
2023-04-27T01:46:42.350Z,77.88
2023-04-27T01:49:09.283Z,78.02
2023-04-27T01:51:36.019Z,78.19
2023-04-27T01:54:02.958Z,78.30
2023-04-27T01:56:29.801Z,78.40
2023-04-27T01:58:56.684Z,78.58
2023-04-27T02:01:24.457Z,78.62
2023-04-27T02:03:51.988Z,78.61
2023-04-27T02:06:19.120Z,78.57
2023-04-27T02:08:46.493Z,78.58
2023-04-27T02:11:13.417Z,78.57
2023-04-27T02:13:40.567Z,78.60
2023-04-27T02:16:07.829Z,78.58
2023-04-27T02:18:36.400Z,78.71
2023-04-27T02:21:08.214Z,78.68
2023-04-27T02:23:36.828Z,78.69
2023-04-27T02:26:03.788Z,78.70
2023-04-27T02:28:31.021Z,78.77
2023-04-27T02:30:58.398Z,78.86
2023-04-27T02:33:25.318Z,78.96
2023-04-27T02:35:52.065Z,79.27
2023-04-27T02:38:19.135Z,79.25
2023-04-27T02:40:45.978Z,79.08
2023-04-27T02:43:12.928Z,79.00
2023-04-27T02:45:39.881Z,79.03
2023-04-27T02:48:07.150Z,78.95
2023-04-27T02:50:34.256Z,79.01
2023-04-27T02:53:01.517Z,79.17
2023-04-27T02:55:29.996Z,79.25
2023-04-27T02:57:56.780Z,79.33
2023-04-27T03:00:24.087Z,79.49
2023-04-27T03:02:51.320Z,79.62
2023-04-27T03:05:18.586Z,79.85
2023-04-27T03:07:45.426Z,80.03
2023-04-27T03:10:12.368Z,80.01
2023-04-27T03:12:39.121Z,80.11
2023-04-27T03:15:06.166Z,80.05
2023-04-27T03:17:33.140Z,79.70
2023-04-27T03:20:00.115Z,79.64
2023-04-27T03:22:27.103Z,79.82
2023-04-27T03:24:54.043Z,79.89
2023-04-27T03:27:21.208Z,80.05
2023-04-27T03:29:51.950Z,80.26
2023-04-27T03:32:18.871Z,80.36
2023-04-27T03:34:45.610Z,80.62
2023-04-27T03:37:12.566Z,80.74
2023-04-27T03:39:39.468Z,80.95
2023-04-27T03:42:06.344Z,80.91
2023-04-27T03:44:33.801Z,81.03
2023-04-27T03:47:01.880Z,81.16
2023-04-27T03:49:29.019Z,80.75
2023-04-27T03:51:56.479Z,79.92
2023-04-27T03:54:23.220Z,79.43
2023-04-27T03:56:50.048Z,79.00
2023-04-27T03:59:17.520Z,78.28
2023-04-27T04:01:49.368Z,77.74
2023-04-27T04:04:16.969Z,77.43
2023-04-27T04:06:43.786Z,77.20
2023-04-27T04:09:12.966Z,77.07
2023-04-27T04:11:40.200Z,76.88
2023-04-27T04:14:07.790Z,76.87
2023-04-27T04:16:34.657Z,76.92
2023-04-27T04:19:01.797Z,76.88
2023-04-27T04:21:28.671Z,76.87
2023-04-27T04:23:56.597Z,76.92
2023-04-27T04:26:23.664Z,76.85
2023-04-27T04:28:50.567Z,76.93
2023-04-27T04:31:18.523Z,77.07
2023-04-27T04:33:45.493Z,77.04
2023-04-27T04:36:15.209Z,77.02
2023-04-27T04:38:42.052Z,76.97
2023-04-27T04:41:10.747Z,76.93
2023-04-27T04:43:37.780Z,76.92
2023-04-27T04:46:06.583Z,76.86
2023-04-27T04:48:34.761Z,76.78
2023-04-27T04:51:01.690Z,76.59
2023-04-27T04:53:29.352Z,76.55
2023-04-27T04:55:56.620Z,76.38
2023-04-27T04:58:23.455Z,76.32
2023-04-27T05:00:50.646Z,76.16
2023-04-27T05:03:17.840Z,76.13
2023-04-27T05:05:44.902Z,76.12
2023-04-27T05:08:11.838Z,76.20
2023-04-27T05:10:38.682Z,76.18
2023-04-27T05:13:07.046Z,76.19
2023-04-27T05:15:34.312Z,76.10
2023-04-27T05:18:01.205Z,76.03
2023-04-27T05:20:28.079Z,76.08
2023-04-27T05:22:54.842Z,76.04
2023-04-27T05:25:21.683Z,76.26
2023-04-27T05:27:48.454Z,76.20
2023-04-27T05:30:15.372Z,76.25
2023-04-27T05:32:42.273Z,76.05
2023-04-27T05:35:09.997Z,75.87
2023-04-27T05:37:36.929Z,75.64
2023-04-27T05:40:06.106Z,75.56
2023-04-27T05:42:33.002Z,75.67
2023-04-27T05:44:59.919Z,75.73
2023-04-27T05:47:26.916Z,75.56
2023-04-27T05:49:53.853Z,75.52
2023-04-27T05:52:21.161Z,75.58
2023-04-27T05:54:48.514Z,75.47
2023-04-27T05:57:15.349Z,75.44
2023-04-27T05:59:42.432Z,75.58
2023-04-27T06:02:09.358Z,75.57
2023-04-27T06:04:37.355Z,75.45
2023-04-27T06:07:11.245Z,75.69
2023-04-27T06:09:38.114Z,75.57
2023-04-27T06:12:05.624Z,75.59
2023-04-27T06:14:32.909Z,75.79
2023-04-27T06:16:59.785Z,75.68
2023-04-27T06:19:26.892Z,75.61
2023-04-27T06:21:54.541Z,75.52
2023-04-27T06:24:21.653Z,75.59
2023-04-27T06:26:51.596Z,75.52
2023-04-27T06:29:18.560Z,75.64
2023-04-27T06:31:45.503Z,75.66
2023-04-27T06:34:12.337Z,75.76
2023-04-27T06:36:39.263Z,75.89
2023-04-27T06:39:06.557Z,75.98
2023-04-27T06:41:34.097Z,76.10
2023-04-27T06:44:01.062Z,76.03
2023-04-27T06:46:27.993Z,76.18
2023-04-27T06:48:54.842Z,76.29
2023-04-27T06:51:21.653Z,76.03
2023-04-27T06:53:48.394Z,76.24
2023-04-27T06:56:15.332Z,76.25
2023-04-27T06:58:42.077Z,76.28
2023-04-27T07:01:08.948Z,76.13
2023-04-27T07:03:36.969Z,76.03
2023-04-27T07:06:04.355Z,76.01
2023-04-27T07:08:31.288Z,75.90
2023-04-27T07:10:58.456Z,76.19
2023-04-27T07:13:25.386Z,76.31
2023-04-27T07:15:58.000Z,76.37
2023-04-27T07:18:26.033Z,76.32
2023-04-27T07:20:52.991Z,76.37
2023-04-27T07:23:19.767Z,76.40
2023-04-27T07:25:46.657Z,76.42
2023-04-27T07:28:13.620Z,76.53
2023-04-27T07:30:41.695Z,76.50
2023-04-27T07:33:10.171Z,76.71
2023-04-27T07:35:37.274Z,76.88
2023-04-27T07:38:04.151Z,76.70
2023-04-27T07:40:31.020Z,76.60
2023-04-27T07:42:58.413Z,76.68
2023-04-27T07:45:32.008Z,76.66
2023-04-27T07:48:00.309Z,76.36
2023-04-27T07:50:28.703Z,76.31
2023-04-27T07:52:56.176Z,76.65
2023-04-27T07:55:23.640Z,76.63
2023-04-27T07:57:50.887Z,76.63
2023-04-27T08:00:18.060Z,76.55
2023-04-27T08:02:45.366Z,76.45
2023-04-27T08:05:12.739Z,76.53
2023-04-27T08:07:44.502Z,76.64
2023-04-27T08:10:12.129Z,76.35
2023-04-27T08:12:39.001Z,76.46
2023-04-27T08:15:06.104Z,76.69
2023-04-27T08:17:33.008Z,76.70
2023-04-27T08:19:59.922Z,76.94
2023-04-27T08:22:26.761Z,76.93
2023-04-27T08:24:53.531Z,76.94
2023-04-27T08:27:20.557Z,76.79
2023-04-27T08:29:48.047Z,76.64
2023-04-27T08:32:15.060Z,76.39
2023-04-27T08:34:42.221Z,76.58
2023-04-27T08:37:09.155Z,76.47
2023-04-27T08:39:36.099Z,76.27
2023-04-27T08:42:10.156Z,76.18
2023-04-27T08:44:40.687Z,75.98
2023-04-27T08:47:08.954Z,75.97
2023-04-27T08:49:38.424Z,75.77
2023-04-27T08:52:11.136Z,75.68
2023-04-27T08:54:38.050Z,75.71
2023-04-27T08:57:14.518Z,75.68
2023-04-27T08:59:41.460Z,75.64
2023-04-27T09:02:18.424Z,75.31
2023-04-27T09:04:45.464Z,75.30
2023-04-27T09:07:12.360Z,75.50
2023-04-27T09:09:39.469Z,75.74
2023-04-27T09:12:27.047Z,76.12
2023-04-27T09:14:57.740Z,76.20
2023-04-27T09:17:25.252Z,76.27
2023-04-27T09:19:52.176Z,76.39
2023-04-27T09:22:18.933Z,76.39
2023-04-27T09:24:52.587Z,75.89
2023-04-27T09:27:20.097Z,75.92
2023-04-27T09:29:46.865Z,75.94
2023-04-27T09:32:17.560Z,76.07
2023-04-27T09:34:44.713Z,75.79
2023-04-27T09:37:11.682Z,75.67
2023-04-27T09:39:38.780Z,75.76
2023-04-27T09:42:05.686Z,75.73
2023-04-27T09:44:32.826Z,75.59
2023-04-27T09:47:00.640Z,75.40
2023-04-27T09:49:28.610Z,75.39
2023-04-27T09:51:57.000Z,75.10
2023-04-27T09:54:24.063Z,74.96
2023-04-27T09:56:53.955Z,74.63
2023-04-27T09:59:30.024Z,74.65
2023-04-27T10:01:57.239Z,74.44
2023-04-27T10:04:37.074Z,74.36
2023-04-27T10:07:12.768Z,73.93
2023-04-27T10:09:43.413Z,73.93
2023-04-27T10:12:14.332Z,73.98
2023-04-27T10:14:51.489Z,74.15
2023-04-27T10:17:18.392Z,74.25
2023-04-27T10:19:57.330Z,74.50
2023-04-27T10:22:25.228Z,74.22
2023-04-27T10:24:52.179Z,74.24
2023-04-27T10:27:24.254Z,74.02
2023-04-27T10:29:51.195Z,74.20
2023-04-27T10:32:23.218Z,74.24
2023-04-27T10:35:04.157Z,74.00
2023-04-27T10:37:43.211Z,73.55
2023-04-27T10:40:10.771Z,73.40
2023-04-27T10:42:37.554Z,73.43
2023-04-27T10:45:04.735Z,73.29
2023-04-27T10:47:39.379Z,72.95
2023-04-27T10:50:07.400Z,72.85
2023-04-27T10:52:34.350Z,72.52
2023-04-27T10:55:14.648Z,72.34
2023-04-27T10:57:52.090Z,72.33
2023-04-27T11:00:26.204Z,72.00
2023-04-27T11:02:54.079Z,72.31
2023-04-27T11:05:23.535Z,72.31
2023-04-27T11:07:51.074Z,72.46
2023-04-27T11:10:19.013Z,72.24
2023-04-27T11:12:46.210Z,72.27
2023-04-27T11:15:14.110Z,72.38
2023-04-27T11:17:41.734Z,72.34
2023-04-27T11:20:09.018Z,72.30
2023-04-27T11:22:46.164Z,72.14
2023-04-27T11:25:13.157Z,71.82
2023-04-27T11:27:40.525Z,71.73
2023-04-27T11:30:18.323Z,71.89
2023-04-27T11:32:45.200Z,71.83
2023-04-27T11:35:11.999Z,71.94
2023-04-27T11:37:39.050Z,71.91
2023-04-27T11:40:06.313Z,71.77
2023-04-27T11:42:33.239Z,71.64
2023-04-27T11:45:01.427Z,71.54
2023-04-27T11:47:28.916Z,71.52
2023-04-27T11:49:56.539Z,71.36
2023-04-27T11:52:27.927Z,71.12
2023-04-27T11:54:56.627Z,71.06
2023-04-27T11:57:29.626Z,71.14
2023-04-27T11:59:57.225Z,71.19
2023-04-27T12:02:24.281Z,71.25
2023-04-27T12:04:51.732Z,71.47
2023-04-27T12:07:18.976Z,71.57
2023-04-27T12:09:46.143Z,71.65
2023-04-27T12:12:14.135Z,71.90
2023-04-27T12:14:41.460Z,71.96
2023-04-27T12:17:08.399Z,72.21
2023-04-27T12:19:37.102Z,72.37
2023-04-27T12:22:04.539Z,72.36
2023-04-27T12:24:31.509Z,72.36
2023-04-27T12:26:58.673Z,72.55
2023-04-27T12:29:25.814Z,72.59
2023-04-27T12:31:53.437Z,72.70
2023-04-27T12:34:20.387Z,72.65
2023-04-27T12:36:47.392Z,72.71
2023-04-27T12:39:21.096Z,72.89
2023-04-27T12:41:48.119Z,73.29
2023-04-27T12:44:15.131Z,73.41
2023-04-27T12:46:42.832Z,73.65
2023-04-27T12:49:09.988Z,73.75
2023-04-27T12:51:37.000Z,73.76
2023-04-27T12:54:04.317Z,73.82
2023-04-27T12:56:31.220Z,73.83
2023-04-27T12:58:58.129Z,74.18
2023-04-27T13:01:26.372Z,74.28
2023-04-27T13:03:53.907Z,74.60
2023-04-27T13:06:22.902Z,74.92
2023-04-27T13:08:49.888Z,75.08
2023-04-27T13:11:17.096Z,75.28
2023-04-27T13:13:44.221Z,75.43
2023-04-27T13:16:12.096Z,75.50
2023-04-27T13:18:40.263Z,75.85
2023-04-27T13:21:07.684Z,76.08
2023-04-27T13:23:34.429Z,76.12
2023-04-27T13:26:01.682Z,76.21
2023-04-27T13:28:28.530Z,76.04
2023-04-27T13:30:55.780Z,75.96
2023-04-27T13:33:23.797Z,75.91
2023-04-27T13:35:51.427Z,76.32
2023-04-27T13:38:18.312Z,76.45
2023-04-27T13:40:45.217Z,76.61
2023-04-27T13:43:12.042Z,76.48
2023-04-27T13:45:39.913Z,76.78
2023-04-27T13:48:07.081Z,76.92
2023-04-27T13:50:33.911Z,77.23
2023-04-27T13:53:01.984Z,77.19
2023-04-27T13:55:28.824Z,77.10
2023-04-27T13:57:55.762Z,77.24
2023-04-27T14:00:22.718Z,77.14
2023-04-27T14:02:49.649Z,77.17
2023-04-27T14:05:16.482Z,77.26
2023-04-27T14:07:43.217Z,77.15
2023-04-27T14:10:10.138Z,77.05
2023-04-27T14:12:37.148Z,77.19
2023-04-27T14:15:04.347Z,77.22
2023-04-27T14:17:31.282Z,77.03
2023-04-27T14:19:58.264Z,77.16
2023-04-27T14:22:25.052Z,77.29
2023-04-27T14:24:52.261Z,77.20
2023-04-27T14:27:19.301Z,77.10
2023-04-27T14:29:46.050Z,77.26
2023-04-27T14:32:13.002Z,77.23
2023-04-27T14:34:39.930Z,77.06
2023-04-27T14:37:06.729Z,76.95
2023-04-27T14:39:33.945Z,76.93
2023-04-27T14:42:00.775Z,77.23
2023-04-27T14:44:27.717Z,77.37
2023-04-27T14:46:54.590Z,77.10
2023-04-27T14:49:21.818Z,77.22
2023-04-27T14:51:48.647Z,77.30
2023-04-27T14:54:15.495Z,77.14
2023-04-27T14:56:42.663Z,77.20
2023-04-27T14:59:09.518Z,77.11
2023-04-27T15:01:37.161Z,77.29
2023-04-27T15:04:04.289Z,77.04
2023-04-27T15:06:31.393Z,77.10
2023-04-27T15:08:58.198Z,77.07
2023-04-27T15:11:25.081Z,77.10
2023-04-27T15:13:52.187Z,77.36
2023-04-27T15:16:20.197Z,77.61
2023-04-27T15:18:47.269Z,77.85
2023-04-27T15:21:25.482Z,77.74
2023-04-27T15:23:52.551Z,77.71
2023-04-27T15:26:19.499Z,77.51
2023-04-27T15:28:46.446Z,77.49
2023-04-27T15:31:13.987Z,77.46
2023-04-27T15:33:41.048Z,77.51
2023-04-27T15:36:07.990Z,77.59
2023-04-27T15:38:34.719Z,77.49
2023-04-27T15:41:01.512Z,77.54
2023-04-27T15:43:28.443Z,77.64
2023-04-27T15:45:55.679Z,77.46
2023-04-27T15:48:22.517Z,77.54
2023-04-27T15:50:49.346Z,77.50
2023-04-27T15:53:16.232Z,77.32
2023-04-27T15:55:43.475Z,77.27
2023-04-27T15:58:10.273Z,77.36
2023-04-27T16:00:37.161Z,77.37
2023-04-27T16:03:04.395Z,77.35
2023-04-27T16:05:31.344Z,77.36
2023-04-27T16:07:58.392Z,77.62
2023-04-27T16:10:25.405Z,77.52
2023-04-27T16:12:52.188Z,77.41
2023-04-27T16:15:19.051Z,77.27
2023-04-27T16:17:45.997Z,77.34
2023-04-27T16:20:13.005Z,77.17
2023-04-27T16:22:40.022Z,77.03
2023-04-27T16:25:10.821Z,77.19
2023-04-27T16:27:38.558Z,77.16
2023-04-27T16:30:06.644Z,77.08
2023-04-27T16:32:35.407Z,76.95
2023-04-27T16:35:03.121Z,76.75
2023-04-27T16:37:30.220Z,76.81
2023-04-27T16:40:01.305Z,76.63
2023-04-27T16:42:28.719Z,76.70
2023-04-27T16:44:55.971Z,76.88
2023-04-27T16:47:22.975Z,77.06
2023-04-27T16:49:49.743Z,77.12
2023-04-27T16:52:17.219Z,76.92
2023-04-27T16:54:44.147Z,76.90
2023-04-27T16:57:11.029Z,77.07
2023-04-27T16:59:37.836Z,76.93
2023-04-27T17:02:16.890Z,76.96
2023-04-27T17:04:48.556Z,76.87
2023-04-27T17:07:15.771Z,76.84
2023-04-27T17:09:42.815Z,76.84
2023-04-27T17:12:13.429Z,76.74
2023-04-27T17:14:40.287Z,76.82
2023-04-27T17:17:07.466Z,76.72
2023-04-27T17:19:34.280Z,76.74
2023-04-27T17:22:01.070Z,76.86
2023-04-27T17:24:28.102Z,76.85
2023-04-27T17:26:54.876Z,76.75
2023-04-27T17:29:21.911Z,76.65
2023-04-27T17:31:50.279Z,76.64
2023-04-27T17:34:17.313Z,76.68
2023-04-27T17:36:44.240Z,76.66
2023-04-27T17:39:13.193Z,76.66
2023-04-27T17:41:40.510Z,76.87
2023-04-27T17:44:07.346Z,76.96
2023-04-27T17:46:34.343Z,76.67
2023-04-27T17:49:01.428Z,76.59
2023-04-27T17:51:31.023Z,76.41
2023-04-27T17:53:57.786Z,76.53
2023-04-27T17:56:24.726Z,76.28
2023-04-27T17:58:51.650Z,76.28
2023-04-27T18:01:18.577Z,76.18
2023-04-27T18:03:45.730Z,76.41
2023-04-27T18:06:12.745Z,76.28
2023-04-27T18:08:39.533Z,76.32
2023-04-27T18:11:07.017Z,76.09
2023-04-27T18:13:33.833Z,76.11
2023-04-27T18:16:00.657Z,76.35
2023-04-27T18:18:27.978Z,76.21
2023-04-27T18:20:54.911Z,76.04
2023-04-27T18:23:21.732Z,76.00
2023-04-27T18:25:48.871Z,75.59
2023-04-27T18:28:15.706Z,75.62
2023-04-27T18:30:42.484Z,75.47
2023-04-27T18:33:09.572Z,75.35
2023-04-27T18:35:36.615Z,75.39
2023-04-27T18:38:03.701Z,75.44
2023-04-27T18:40:30.842Z,75.81
2023-04-27T18:42:57.708Z,76.05
2023-04-27T18:45:24.509Z,75.91
2023-04-27T18:47:51.781Z,76.08
2023-04-27T18:50:19.307Z,76.20
2023-04-27T18:52:46.187Z,76.31
2023-04-27T18:55:14.447Z,76.08
2023-04-27T18:57:41.433Z,75.86
2023-04-27T19:00:09.299Z,75.87
2023-04-27T19:02:36.351Z,76.03
2023-04-27T19:05:12.979Z,76.21
2023-04-27T19:07:40.833Z,76.31
2023-04-27T19:10:08.248Z,76.39
2023-04-27T19:12:35.456Z,76.15
2023-04-27T19:15:02.614Z,76.21
2023-04-27T19:17:29.756Z,76.40
2023-04-27T19:19:56.928Z,76.38
2023-04-27T19:22:24.164Z,76.37
2023-04-27T19:24:51.003Z,76.36
2023-04-27T19:27:18.026Z,76.60
2023-04-27T19:29:54.560Z,76.45
2023-04-27T19:32:21.880Z,76.34
2023-04-27T19:34:48.733Z,76.24
2023-04-27T19:37:16.182Z,76.36
2023-04-27T19:39:43.072Z,76.27
2023-04-27T19:42:09.979Z,76.38
2023-04-27T19:44:36.810Z,76.21
2023-04-27T19:47:03.730Z,76.24
2023-04-27T19:49:31.104Z,76.29
2023-04-27T19:51:58.335Z,76.21
2023-04-27T19:54:25.160Z,76.30
2023-04-27T19:56:52.258Z,75.98
2023-04-27T19:59:19.180Z,75.88
2023-04-27T20:01:46.788Z,76.20
2023-04-27T20:04:14.296Z,76.61
2023-04-27T20:06:43.433Z,76.60
2023-04-27T20:09:10.370Z,76.65
2023-04-27T20:11:37.186Z,76.54
2023-04-27T20:14:03.957Z,76.59
2023-04-27T20:16:31.486Z,76.53
2023-04-27T20:18:58.463Z,76.39
2023-04-27T20:21:25.375Z,76.29
2023-04-27T20:23:52.167Z,76.15
2023-04-27T20:26:18.962Z,76.26
2023-04-27T20:28:45.900Z,76.15
2023-04-27T20:31:12.709Z,76.09
2023-04-27T20:33:39.470Z,75.91
2023-04-27T20:36:16.185Z,75.90
2023-04-27T20:38:44.488Z,75.95
2023-04-27T20:41:12.516Z,76.12
2023-04-27T20:43:40.304Z,75.95
2023-04-27T20:46:07.676Z,76.05
2023-04-27T20:48:34.778Z,75.89
2023-04-27T20:51:01.756Z,75.79
2023-04-27T20:53:28.597Z,75.82
2023-04-27T20:55:55.402Z,75.87
2023-04-27T20:58:22.459Z,76.01
2023-04-27T21:00:49.336Z,76.12
2023-04-27T21:03:16.443Z,76.04
2023-04-27T21:05:44.224Z,76.31
2023-04-27T21:08:11.275Z,76.23
2023-04-27T21:10:38.082Z,76.18
2023-04-27T21:13:04.817Z,76.20
2023-04-27T21:15:32.105Z,76.19
2023-04-27T21:17:59.353Z,76.11
2023-04-27T21:20:26.517Z,76.19
2023-04-27T21:22:53.328Z,76.06
2023-04-27T21:25:21.706Z,76.13
2023-04-27T21:27:50.390Z,76.20
2023-04-27T21:30:17.143Z,76.20
2023-04-27T21:32:44.022Z,76.18
2023-04-27T21:35:11.242Z,76.48
2023-04-27T21:37:38.184Z,76.27
2023-04-27T21:40:06.185Z,76.28
2023-04-27T21:42:32.979Z,76.49
2023-04-27T21:44:59.777Z,76.44
2023-04-27T21:47:26.637Z,76.21
2023-04-27T21:49:53.564Z,76.53
2023-04-27T21:52:21.651Z,76.76
2023-04-27T21:54:48.624Z,76.56
2023-04-27T21:57:16.585Z,76.61
2023-04-27T21:59:44.578Z,76.76
2023-04-27T22:02:11.522Z,76.68
2023-04-27T22:04:39.262Z,76.68
2023-04-27T22:07:07.924Z,76.36
2023-04-27T22:09:35.852Z,76.36
2023-04-27T22:12:05.830Z,76.10
2023-04-27T22:14:32.624Z,76.05
2023-04-27T22:17:00.922Z,76.37
2023-04-27T22:19:28.893Z,76.39
2023-04-27T22:21:55.823Z,76.41
2023-04-27T22:24:22.645Z,76.27
2023-04-27T22:26:49.552Z,76.12
2023-04-27T22:29:16.345Z,76.18
2023-04-27T22:31:43.490Z,75.84
2023-04-27T22:34:11.530Z,75.91
2023-04-27T22:36:38.520Z,75.90
2023-04-27T22:39:05.626Z,75.95
2023-04-27T22:41:32.531Z,75.86
2023-04-27T22:43:59.368Z,75.95
2023-04-27T22:46:26.266Z,76.02
2023-04-27T22:48:53.982Z,76.14
2023-04-27T22:51:21.863Z,76.14
2023-04-27T22:53:48.787Z,76.19
2023-04-27T22:56:15.656Z,76.16
2023-04-27T22:58:42.415Z,76.14
2023-04-27T23:01:09.221Z,76.06
2023-04-27T23:03:36.572Z,76.15
2023-04-27T23:06:05.229Z,76.17
2023-04-27T23:08:32.102Z,76.35
2023-04-27T23:10:58.982Z,76.28
2023-04-27T23:13:27.730Z,76.36
2023-04-27T23:15:54.711Z,76.27
2023-04-27T23:18:21.587Z,76.36
2023-04-27T23:20:52.514Z,76.01
2023-04-27T23:23:19.235Z,76.04
2023-04-27T23:25:45.921Z,76.02
2023-04-27T23:28:12.810Z,75.94
2023-04-27T23:30:39.704Z,76.05
2023-04-27T23:33:07.006Z,75.89
2023-04-27T23:35:34.178Z,75.83
2023-04-27T23:38:01.313Z,75.74
2023-04-27T23:40:28.031Z,75.52
2023-04-27T23:42:55.860Z,75.36
2023-04-27T23:45:22.746Z,75.49
2023-04-27T23:47:49.521Z,75.39
2023-04-27T23:50:16.690Z,75.47
2023-04-27T23:52:43.488Z,75.29
2023-04-27T23:55:10.552Z,75.01
2023-04-27T23:57:37.585Z,75.10
